createdAt,value
2023-01-10T00:02:13.291Z,98296.38
2023-01-10T00:04:41.731Z,98302.13
2023-01-10T00:07:10.141Z,98300.44
2023-01-10T00:09:38.521Z,98299.31
2023-01-10T00:12:24.674Z,98293.81
2023-01-10T00:14:54.414Z,98305.09
2023-01-10T00:17:22.839Z,98303.19
2023-01-10T00:19:51.272Z,98306.44
2023-01-10T00:22:25.243Z,98314.13
2023-01-10T00:24:54.019Z,98318.50
2023-01-10T00:27:23.712Z,98314.66
2023-01-10T00:29:54.009Z,98324.50
2023-01-10T00:32:23.357Z,98321.75
2023-01-10T00:34:51.840Z,98330.00
2023-01-10T00:37:20.236Z,98321.75
2023-01-10T00:39:48.675Z,98330.31
2023-01-10T00:42:34.615Z,98331.94
2023-01-10T00:45:05.099Z,98343.22
2023-01-10T00:47:33.489Z,98343.22
2023-01-10T00:50:01.867Z,98342.69
2023-01-10T00:52:30.263Z,98349.31
2023-01-10T00:54:58.804Z,98353.97
2023-01-10T00:57:27.219Z,98361.94
2023-01-10T00:59:55.608Z,98371.06
2023-01-10T01:02:25.614Z,98367.03
2023-01-10T01:04:54.120Z,98374.50
2023-01-10T01:07:22.604Z,98383.06
2023-01-10T01:10:08.515Z,98389.97
2023-01-10T01:12:36.951Z,98392.00
2023-01-10T01:15:06.963Z,98396.16
2023-01-10T01:17:36.705Z,98404.41
2023-01-10T01:20:06.303Z,98412.16
2023-01-10T01:22:34.725Z,98414.09
2023-01-10T01:25:04.490Z,98420.69
2023-01-10T01:27:33.254Z,98412.50
2023-01-10T01:30:01.822Z,98409.81
2023-01-10T01:32:30.232Z,98417.75
2023-01-10T01:35:00.087Z,98421.09
2023-01-10T01:37:28.714Z,98418.91
2023-01-10T01:39:57.153Z,98416.72
2023-01-10T01:42:31.964Z,98422.75
2023-01-10T01:45:39.758Z,98426.09
2023-01-10T01:48:34.444Z,98419.81
2023-01-10T01:51:11.638Z,98429.41
2023-01-10T01:53:45.610Z,98436.31
2023-01-10T01:56:18.714Z,98442.88
2023-01-10T01:58:53.112Z,98440.69
2023-01-10T02:01:23.892Z,98441.50
2023-01-10T02:03:57.487Z,98441.78
2023-01-10T02:06:27.453Z,98451.09
2023-01-10T02:09:04.646Z,98442.34
2023-01-10T02:11:33.087Z,98448.66
2023-01-10T02:14:03.672Z,98453.31
2023-01-10T02:16:32.217Z,98464.28
2023-01-10T02:19:00.703Z,98445.63
2023-01-10T02:22:14.163Z,98457.97
2023-01-10T02:25:11.106Z,98461.28
2023-01-10T02:28:06.249Z,98475.53
2023-01-10T02:31:02.356Z,98471.97
2023-01-10T02:33:37.265Z,98468.94
2023-01-10T02:36:34.607Z,98482.63
2023-01-10T02:39:12.322Z,98476.06
2023-01-10T02:41:47.732Z,98477.69
2023-01-10T02:44:25.979Z,98484.00
2023-01-10T02:46:54.419Z,98470.56
2023-01-10T02:49:24.257Z,98497.41
2023-01-10T02:51:52.632Z,98488.34
2023-01-10T02:54:26.846Z,98490.25
2023-01-10T02:57:32.822Z,98496.84
2023-01-10T03:00:32.116Z,98491.59
2023-01-10T03:03:34.829Z,98501.19
2023-01-10T03:06:22.237Z,98497.06
2023-01-10T03:08:57.312Z,98503.63
2023-01-10T03:11:44.666Z,98500.34
2023-01-10T03:14:19.919Z,98503.38
2023-01-10T03:16:54.258Z,98511.06
2023-01-10T03:19:26.147Z,98509.69
2023-01-10T03:22:00.912Z,98517.38
2023-01-10T03:24:36.751Z,98509.44
2023-01-10T03:27:10.747Z,98514.13
2023-01-10T03:29:47.941Z,98534.16
2023-01-10T03:32:18.541Z,98533.88
2023-01-10T03:34:47.079Z,98532.78
2023-01-10T03:37:24.618Z,98535.53
2023-01-10T03:40:00.045Z,98536.13
2023-01-10T03:42:56.751Z,98555.84
2023-01-10T03:45:31.971Z,98550.06
2023-01-10T03:48:03.309Z,98559.41
2023-01-10T03:50:33.301Z,98567.88
2023-01-10T03:53:03.153Z,98575.56
2023-01-10T03:55:32.639Z,98577.75
2023-01-10T03:58:01.011Z,98578.03
2023-01-10T04:00:29.587Z,98584.06
2023-01-10T04:02:59.271Z,98586.81
2023-01-10T04:05:27.711Z,98590.91
2023-01-10T04:07:56.077Z,98591.19
2023-01-10T04:10:27.230Z,98601.31
2023-01-10T04:12:55.650Z,98607.34
2023-01-10T04:15:24.027Z,98606.00
2023-01-10T04:17:52.395Z,98615.31
2023-01-10T04:20:20.817Z,98611.72
2023-01-10T04:22:51.490Z,98617.22
2023-01-10T04:25:19.955Z,98602.97
2023-01-10T04:27:50.855Z,98617.19
2023-01-10T04:30:20.125Z,98628.44
2023-01-10T04:32:49.285Z,98630.63
2023-01-10T04:35:17.997Z,98636.13
2023-01-10T04:37:46.394Z,98633.38
2023-01-10T04:40:17.307Z,98635.28
2023-01-10T04:42:45.728Z,98639.94
2023-01-10T04:45:17.865Z,98642.66
2023-01-10T04:47:51.714Z,98652.00
2023-01-10T04:50:20.375Z,98656.66
2023-01-10T04:52:48.793Z,98667.31
2023-01-10T04:55:17.515Z,98668.97
2023-01-10T04:57:46.204Z,98669.81
2023-01-10T05:00:16.616Z,98665.72
2023-01-10T05:02:45.176Z,98680.19
2023-01-10T05:05:14.529Z,98686.78
2023-01-10T05:07:43.184Z,98689.25
2023-01-10T05:10:12.979Z,98691.16
2023-01-10T05:12:41.436Z,98693.09
2023-01-10T05:15:11.044Z,98710.34
2023-01-10T05:17:40.934Z,98695.00
2023-01-10T05:20:11.208Z,98720.75
2023-01-10T05:22:39.626Z,98705.41
2023-01-10T05:25:09.360Z,98708.16
2023-01-10T05:27:37.777Z,98718.28
2023-01-10T05:30:07.730Z,98706.50
2023-01-10T05:32:36.223Z,98726.50
2023-01-10T05:35:07.401Z,98721.84
2023-01-10T05:37:37.364Z,98730.06
2023-01-10T05:40:08.521Z,98729.25
2023-01-10T05:42:36.977Z,98732.81
2023-01-10T05:45:06.281Z,98733.34
2023-01-10T05:47:34.682Z,98740.22
2023-01-10T05:50:03.115Z,98737.47
2023-01-10T05:52:32.913Z,98745.69
2023-01-10T05:55:01.332Z,98745.69
2023-01-10T05:57:29.714Z,98744.31
2023-01-10T05:59:58.123Z,98760.75
2023-01-10T06:02:27.334Z,98758.84
2023-01-10T06:04:56.634Z,98767.84
2023-01-10T06:07:25.465Z,98765.13
2023-01-10T06:09:55.311Z,98772.78
2023-01-10T06:12:23.684Z,98768.97
2023-01-10T06:14:52.096Z,98769.50
2023-01-10T06:17:20.458Z,98780.44
2023-01-10T06:19:48.872Z,98795.81
2023-01-10T06:22:17.269Z,98806.47
2023-01-10T06:24:45.719Z,98805.66
2023-01-10T06:27:16.901Z,98808.66
2023-01-10T06:29:45.320Z,98812.25
2023-01-10T06:32:13.786Z,98827.84
2023-01-10T06:34:42.207Z,98826.19
2023-01-10T06:37:10.636Z,98832.78
2023-01-10T06:39:39.731Z,98833.84
2023-01-10T06:42:08.122Z,98838.25
2023-01-10T06:44:37.892Z,98846.47
2023-01-10T06:47:06.386Z,98844.56
2023-01-10T06:49:34.777Z,98860.16
2023-01-10T06:52:03.225Z,98861.00
2023-01-10T06:54:31.619Z,98865.63
2023-01-10T06:57:00.054Z,98862.91
2023-01-10T06:59:28.456Z,98866.72
2023-01-10T07:01:58.399Z,98885.66
2023-01-10T07:04:27.201Z,98890.84
2023-01-10T07:06:56.120Z,98905.38
2023-01-10T07:09:24.550Z,98898.78
2023-01-10T07:11:52.946Z,98908.66
2023-01-10T07:14:21.582Z,98901.28
2023-01-10T07:16:50.050Z,98909.50
2023-01-10T07:19:20.158Z,98917.44
2023-01-10T07:21:48.591Z,98917.16
2023-01-10T07:24:17.106Z,98922.66
2023-01-10T07:26:45.535Z,98928.44
2023-01-10T07:29:13.927Z,98930.63
2023-01-10T07:31:42.415Z,98932.00
2023-01-10T07:34:10.829Z,98935.56
2023-01-10T07:36:40.582Z,98932.59
2023-01-10T07:39:09.179Z,98936.97
2023-01-10T07:41:37.569Z,98943.28
2023-01-10T07:44:06.348Z,98937.53
2023-01-10T07:46:34.836Z,98951.78
2023-01-10T07:49:03.268Z,98960.00
2023-01-10T07:51:31.691Z,98957.81
2023-01-10T07:54:01.533Z,98956.72
2023-01-10T07:56:30.587Z,98967.97
2023-01-10T07:58:59.011Z,98978.69
2023-01-10T08:01:27.459Z,98985.81
2023-01-10T08:03:55.967Z,98982.81
2023-01-10T08:06:24.486Z,98984.72
2023-01-10T08:08:52.934Z,99002.84
2023-01-10T08:11:22.747Z,99001.72
2023-01-10T08:13:51.226Z,99005.31
2023-01-10T08:16:20.947Z,99011.34
2023-01-10T08:18:49.419Z,99027.50
2023-01-10T08:21:17.943Z,99028.63
2023-01-10T08:23:46.442Z,99044.78
2023-01-10T08:26:15.169Z,99050.25
2023-01-10T08:28:44.963Z,99045.63
2023-01-10T08:31:13.643Z,99045.09
2023-01-10T08:33:42.464Z,99058.53
2023-01-10T08:36:17.916Z,99063.75
2023-01-10T08:38:47.891Z,99077.19
2023-01-10T08:41:16.312Z,99070.38
2023-01-10T08:43:46.135Z,99071.19
2023-01-10T08:46:14.612Z,99066.59
2023-01-10T08:48:43.232Z,99093.78
2023-01-10T08:51:12.151Z,99096.53
2023-01-10T08:53:41.112Z,99099.06
2023-01-10T08:56:10.755Z,99098.81
2023-01-10T08:58:39.316Z,99100.47
2023-01-10T09:01:12.016Z,99111.75
2023-01-10T09:03:40.955Z,99107.09
2023-01-10T09:06:10.271Z,99098.94
2023-01-10T09:08:39.174Z,99117.88
2023-01-10T09:11:08.226Z,99122.56
2023-01-10T09:13:36.677Z,99137.16
2023-01-10T09:16:06.037Z,99136.63
2023-01-10T09:18:35.992Z,99140.22
2023-01-10T09:21:05.829Z,99131.44
2023-01-10T09:23:36.844Z,99147.09
2023-01-10T09:26:05.560Z,99142.72
2023-01-10T09:28:34.418Z,99129.03
2023-01-10T09:31:04.502Z,99154.84
2023-01-10T09:33:45.874Z,99155.38
2023-01-10T09:36:17.174Z,99176.00
2023-01-10T09:38:45.848Z,99170.25
2023-01-10T09:41:52.607Z,99172.72
2023-01-10T09:44:30.961Z,99177.41
2023-01-10T09:47:22.012Z,99172.22
2023-01-10T09:50:07.583Z,99172.78
2023-01-10T09:52:43.509Z,99171.41
2023-01-10T09:55:24.738Z,99180.19
2023-01-10T09:57:56.146Z,99176.09
2023-01-10T10:00:35.407Z,99182.97
2023-01-10T10:03:14.355Z,99175.00
2023-01-10T10:05:43.668Z,99178.00
2023-01-10T10:08:19.850Z,99192.34
2023-01-10T10:11:08.280Z,99188.19
2023-01-10T10:13:50.014Z,99189.31
2023-01-10T10:16:33.456Z,99181.91
2023-01-10T10:19:16.368Z,99193.19
2023-01-10T10:21:58.834Z,99181.09
2023-01-10T10:24:54.125Z,99214.91
2023-01-10T10:27:25.714Z,99195.69
2023-01-10T10:30:25.919Z,99207.22
2023-01-10T10:33:18.706Z,99210.81
2023-01-10T10:35:56.912Z,99209.44
2023-01-10T10:38:31.388Z,99211.38
2023-01-10T10:41:02.898Z,99203.94
2023-01-10T10:43:35.867Z,99210.00
2023-01-10T10:46:09.407Z,99216.59
2023-01-10T10:48:45.324Z,99209.19
2023-01-10T10:51:19.977Z,99209.19
2023-01-10T10:53:49.503Z,99215.50
2023-01-10T10:56:23.854Z,99221.06
2023-01-10T10:58:56.479Z,99206.75
2023-01-10T11:01:26.676Z,99213.06
2023-01-10T11:03:59.674Z,99211.97
2023-01-10T11:06:34.108Z,99221.06
2023-01-10T11:09:05.822Z,99211.97
2023-01-10T11:11:39.810Z,99207.56
2023-01-10T11:14:10.083Z,99215.53
2023-01-10T11:16:41.070Z,99214.16
2023-01-10T11:19:22.228Z,99201.50
2023-01-10T11:21:57.517Z,99204.25
2023-01-10T11:24:31.263Z,99229.00
2023-01-10T11:27:06.513Z,99224.59
2023-01-10T11:29:44.798Z,99219.09
2023-01-10T11:32:18.198Z,99226.25
2023-01-10T11:34:54.953Z,99235.91
2023-01-10T11:37:29.251Z,99215.50
2023-01-10T11:40:24.480Z,99222.38
2023-01-10T11:42:59.032Z,99232.25
2023-01-10T11:45:32.718Z,99233.63
2023-01-10T11:48:30.156Z,99227.56
2023-01-10T11:51:20.300Z,99224.53
2023-01-10T11:53:51.390Z,99230.28
2023-01-10T11:56:27.936Z,99229.69
2023-01-10T11:58:59.847Z,99225.28
2023-01-10T12:01:33.071Z,99222.75
2023-01-10T12:04:01.872Z,99218.00
2023-01-10T12:06:31.152Z,99230.09
2023-01-10T12:09:00.351Z,99237.50
2023-01-10T12:11:32.788Z,99248.19
2023-01-10T12:14:03.900Z,99234.59
2023-01-10T12:16:35.022Z,99237.59
2023-01-10T12:19:13.233Z,99240.56
2023-01-10T12:21:43.930Z,99245.75
2023-01-10T12:24:19.814Z,99247.84
2023-01-10T12:26:51.057Z,99258.50
2023-01-10T12:29:30.463Z,99265.06
2023-01-10T12:32:01.889Z,99262.78
2023-01-10T12:34:41.435Z,99250.25
2023-01-10T12:37:18.489Z,99257.03
2023-01-10T12:39:53.290Z,99265.19
2023-01-10T12:42:53.215Z,99266.81
2023-01-10T12:45:28.661Z,99286.47
2023-01-10T12:48:09.149Z,99263.81
2023-01-10T12:50:42.672Z,99275.91
2023-01-10T12:53:25.316Z,99270.84
2023-01-10T12:55:58.581Z,99271.63
2023-01-10T12:58:37.043Z,99290.72
2023-01-10T13:01:08.614Z,99286.06
2023-01-10T13:03:37.740Z,99288.19
2023-01-10T13:06:06.793Z,99293.59
2023-01-10T13:08:37.014Z,99290.47
2023-01-10T13:11:09.064Z,99300.78
2023-01-10T13:13:43.325Z,99312.50
2023-01-10T13:16:31.617Z,99310.97
2023-01-10T13:19:23.410Z,99320.94
2023-01-10T13:21:53.215Z,99321.81
2023-01-10T13:24:26.414Z,99321.91
2023-01-10T13:26:57.920Z,99324.16
2023-01-10T13:29:30.823Z,99332.47
2023-01-10T13:32:03.624Z,99331.66
2023-01-10T13:34:36.826Z,99339.72
2023-01-10T13:37:14.205Z,99336.72
2023-01-10T13:39:48.985Z,99339.25
2023-01-10T13:42:50.553Z,99358.84
2023-01-10T13:45:25.449Z,99363.56
2023-01-10T13:48:29.039Z,99347.56
2023-01-10T13:51:16.745Z,99374.06
2023-01-10T13:53:56.124Z,99371.31
2023-01-10T13:56:37.275Z,99368.06
2023-01-10T13:59:51.773Z,99387.06
2023-01-10T14:02:31.896Z,99400.25
2023-01-10T14:05:06.021Z,99400.25
2023-01-10T14:07:45.357Z,99394.19
2023-01-10T14:10:24.070Z,99394.78
2023-01-10T14:12:57.249Z,99398.06
2023-01-10T14:15:29.972Z,99409.91
2023-01-10T14:18:02.191Z,99404.69
2023-01-10T14:20:33.586Z,99421.19
2023-01-10T14:23:09.293Z,99414.59
2023-01-10T14:25:39.383Z,99427.22
2023-01-10T14:28:23.768Z,99434.38
2023-01-10T14:31:03.705Z,99429.41
2023-01-10T14:33:34.422Z,99425.00
2023-01-10T14:36:10.720Z,99425.81
2023-01-10T14:38:40.423Z,99424.19
2023-01-10T14:41:17.827Z,99424.44
2023-01-10T14:43:54.291Z,99429.13
2023-01-10T14:46:29.849Z,99450.03
2023-01-10T14:49:00.916Z,99443.13
2023-01-10T14:51:33.566Z,99441.19
2023-01-10T14:54:05.589Z,99452.47
2023-01-10T14:56:41.181Z,99453.56
2023-01-10T14:59:29.090Z,99464.81
2023-01-10T15:01:59.830Z,99472.75
2023-01-10T15:04:32.887Z,99485.91
2023-01-10T15:07:12.152Z,99483.16
2023-01-10T15:09:48.567Z,99487.28
2023-01-10T15:12:19.381Z,99488.84
2023-01-10T15:14:49.980Z,99495.72
2023-01-10T15:17:21.152Z,99502.00
2023-01-10T15:19:53.563Z,99504.47
2023-01-10T15:22:31.227Z,99510.50
2023-01-10T15:25:01.903Z,99515.19
2023-01-10T15:27:31.676Z,99518.50
2023-01-10T15:30:01.164Z,99520.94
2023-01-10T15:32:34.703Z,99524.50
2023-01-10T15:35:03.761Z,99520.91
2023-01-10T15:37:39.348Z,99532.94
2023-01-10T15:40:22.267Z,99538.38
2023-01-10T15:42:50.881Z,99543.06
2023-01-10T15:45:30.940Z,99560.91
2023-01-10T15:48:04.140Z,99554.31
2023-01-10T15:50:38.701Z,99560.66
2023-01-10T15:53:11.624Z,99576.88
2023-01-10T15:55:45.459Z,99560.38
2023-01-10T15:58:20.597Z,99562.31
2023-01-10T16:00:51.751Z,99574.94
2023-01-10T16:03:35.825Z,99592.00
2023-01-10T16:06:09.722Z,99575.28
2023-01-10T16:08:40.580Z,99578.59
2023-01-10T16:11:38.944Z,99577.75
2023-01-10T16:14:06.431Z,99580.50
2023-01-10T16:16:35.224Z,99573.91
2023-01-10T16:19:03.975Z,99584.91
2023-01-10T16:21:39.402Z,99591.22
2023-01-10T16:24:18.421Z,99592.31
2023-01-10T16:26:47.899Z,99591.22
2023-01-10T16:29:16.868Z,99584.91
2023-01-10T16:31:46.565Z,99589.56
2023-01-10T16:34:15.099Z,99580.50
2023-01-10T16:36:44.634Z,99598.06
2023-01-10T16:39:18.869Z,99606.31
2023-01-10T16:42:07.567Z,99604.41
2023-01-10T16:44:36.930Z,99612.06
2023-01-10T16:47:07.082Z,99611.25
2023-01-10T16:49:36.071Z,99626.09
2023-01-10T16:52:05.013Z,99628.00
2023-01-10T16:54:37.693Z,99623.59
2023-01-10T16:57:06.178Z,99622.78
2023-01-10T16:59:34.724Z,99626.59
2023-01-10T17:02:03.338Z,99627.69
2023-01-10T17:04:35.070Z,99624.13
2023-01-10T17:07:03.532Z,99627.13
2023-01-10T17:09:34.146Z,99636.47
2023-01-10T17:12:06.828Z,99637.56
2023-01-10T17:14:37.186Z,99626.31
2023-01-10T17:17:06.299Z,99643.38
2023-01-10T17:19:34.840Z,99642.25
2023-01-10T17:22:03.355Z,99651.06
2023-01-10T17:24:31.899Z,99649.16
2023-01-10T17:27:01.714Z,99650.00
2023-01-10T17:29:31.796Z,99651.63
2023-01-10T17:32:00.315Z,99664.03
2023-01-10T17:34:29.820Z,99656.63
2023-01-10T17:36:58.347Z,99669.84
2023-01-10T17:39:27.008Z,99658.59
2023-01-10T17:41:55.989Z,99674.25
2023-01-10T17:44:26.207Z,99680.84
2023-01-10T17:46:56.982Z,99679.75
2023-01-10T17:49:26.202Z,99681.69
2023-01-10T17:51:54.964Z,99700.94
2023-01-10T17:54:23.465Z,99690.19
2023-01-10T17:56:52.336Z,99691.53
2023-01-10T17:59:21.767Z,99708.28
2023-01-10T18:01:51.790Z,99695.88
2023-01-10T18:04:20.371Z,99697.81
2023-01-10T18:06:50.255Z,99680.75
2023-01-10T18:09:19.155Z,99695.59
2023-01-10T18:11:47.677Z,99705.75
2023-01-10T18:14:33.959Z,99693.09
2023-01-10T18:17:04.686Z,99706.53
2023-01-10T18:19:34.011Z,99711.47
2023-01-10T18:22:24.281Z,99705.13
2023-01-10T18:24:55.700Z,99719.94
2023-01-10T18:27:25.524Z,99718.81
2023-01-10T18:29:55.016Z,99721.56
2023-01-10T18:32:25.935Z,99741.06
2023-01-10T18:34:55.495Z,99721.56
2023-01-10T18:37:24.279Z,99719.06
2023-01-10T18:39:53.149Z,99727.81
2023-01-10T18:42:21.911Z,99736.91
2023-01-10T18:44:50.907Z,99730.84
2023-01-10T18:47:20.074Z,99729.16
2023-01-10T18:49:50.716Z,99726.69
2023-01-10T18:52:21.133Z,99728.59
2023-01-10T18:54:51.909Z,99724.19
2023-01-10T18:57:21.309Z,99726.63
2023-01-10T18:59:50.208Z,99730.44
2023-01-10T19:02:19.901Z,99726.31
2023-01-10T19:04:51.725Z,99737.81
2023-01-10T19:07:21.249Z,99732.31
2023-01-10T19:09:52.474Z,99727.88
2023-01-10T19:12:21.999Z,99722.66
2023-01-10T19:14:51.297Z,99739.41
2023-01-10T19:17:22.754Z,99745.97
2023-01-10T19:19:56.738Z,99746.47
2023-01-10T19:22:26.462Z,99750.06
2023-01-10T19:25:00.337Z,99746.47
2023-01-10T19:27:29.728Z,99757.22
2023-01-10T19:29:58.691Z,99745.69
2023-01-10T19:32:27.530Z,99749.50
2023-01-10T19:34:58.084Z,99752.50
2023-01-10T19:37:27.042Z,99762.91
2023-01-10T19:39:55.510Z,99765.66
2023-01-10T19:42:26.034Z,99766.47
2023-01-10T19:44:55.248Z,99767.56
2023-01-10T19:47:24.347Z,99769.50
2023-01-10T19:49:53.507Z,99765.91
2023-01-10T19:52:23.481Z,99767.81
2023-01-10T19:54:52.442Z,99774.41
2023-01-10T19:57:21.650Z,99771.66
2023-01-10T19:59:52.610Z,99773.56
2023-01-10T20:02:21.537Z,99776.56
2023-01-10T20:04:50.698Z,99780.41
2023-01-10T20:07:19.993Z,99782.56
2023-01-10T20:09:51.279Z,99774.03
2023-01-10T20:12:20.482Z,99778.91
2023-01-10T20:14:51.735Z,99768.94
2023-01-10T20:17:21.441Z,99763.38
2023-01-10T20:19:51.575Z,99778.72
2023-01-10T20:22:20.858Z,99772.91
2023-01-10T20:24:50.774Z,99781.28
2023-01-10T20:27:19.704Z,99780.13
2023-01-10T20:29:48.742Z,99773.75
2023-01-10T20:32:20.041Z,99776.97
2023-01-10T20:34:49.866Z,99785.19
2023-01-10T20:37:18.494Z,99783.53
2023-01-10T20:39:48.774Z,99786.53
2023-01-10T20:42:20.158Z,99786.25
2023-01-10T20:44:49.527Z,99781.38
2023-01-10T20:47:18.746Z,99792.13
2023-01-10T20:49:47.599Z,99789.97
2023-01-10T20:52:16.930Z,99788.88
2023-01-10T20:54:46.789Z,99785.06
2023-01-10T20:57:15.690Z,99796.59
2023-01-10T20:59:45.733Z,99794.69
2023-01-10T21:02:14.354Z,99795.00
2023-01-10T21:04:43.011Z,99796.44
2023-01-10T21:07:11.679Z,99796.19
2023-01-10T21:09:40.938Z,99800.59
2023-01-10T21:12:22.786Z,99792.34
2023-01-10T21:14:53.895Z,99784.13
2023-01-10T21:17:23.114Z,99794.88
2023-01-10T21:19:51.598Z,99795.94
2023-01-10T21:22:20.227Z,99778.13
2023-01-10T21:24:49.948Z,99775.88
2023-01-10T21:27:18.514Z,99775.66
2023-01-10T21:29:46.987Z,99772.06
2023-01-10T21:32:16.815Z,99767.66
2023-01-10T21:34:45.249Z,99775.66
2023-01-10T21:37:13.722Z,99760.81
2023-01-10T21:39:42.164Z,99765.47
2023-01-10T21:42:43.804Z,99771.81
2023-01-10T21:45:13.525Z,99773.97
2023-01-10T21:47:43.356Z,99772.91
2023-01-10T21:50:14.160Z,99780.03
2023-01-10T21:52:43.675Z,99772.66
2023-01-10T21:55:15.388Z,99771.22
2023-01-10T21:57:44.085Z,99770.38
2023-01-10T22:00:14.094Z,99769.81
2023-01-10T22:02:43.952Z,99764.31
2023-01-10T22:05:12.681Z,99768.16
2023-01-10T22:07:41.664Z,99764.59
2023-01-10T22:10:12.062Z,99777.47
2023-01-10T22:12:40.531Z,99775.00
2023-01-10T22:15:11.355Z,99762.59
2023-01-10T22:17:39.828Z,99763.66
2023-01-10T22:20:11.758Z,99765.56
2023-01-10T22:22:40.188Z,99763.94
2023-01-10T22:25:10.143Z,99762.25
2023-01-10T22:27:38.583Z,99764.16
2023-01-10T22:30:09.096Z,99766.34
2023-01-10T22:32:37.503Z,99766.59
2023-01-10T22:35:06.744Z,99771.47
2023-01-10T22:37:36.574Z,99775.28
2023-01-10T22:40:05.745Z,99770.31
2023-01-10T22:42:34.408Z,99766.16
2023-01-10T22:45:02.893Z,99773.56
2023-01-10T22:47:31.316Z,99776.31
2023-01-10T22:49:59.773Z,99785.38
2023-01-10T22:52:28.165Z,99783.47
2023-01-10T22:54:58.005Z,99784.28
2023-01-10T22:57:28.728Z,99788.44
2023-01-10T22:59:57.333Z,99794.50
2023-01-10T23:02:27.812Z,99786.03
2023-01-10T23:04:57.406Z,99784.34
2023-01-10T23:07:25.861Z,99787.94
2023-01-10T23:09:54.282Z,99779.97
2023-01-10T23:12:24.291Z,99780.56
2023-01-10T23:14:52.821Z,99787.72
2023-01-10T23:17:21.204Z,99774.22
2023-01-10T23:19:49.742Z,99791.03
2023-01-10T23:22:18.093Z,99788.06
2023-01-10T23:24:46.524Z,99786.13
2023-01-10T23:27:15.213Z,99783.38
2023-01-10T23:29:44.967Z,99777.09
2023-01-10T23:32:13.353Z,99783.63
2023-01-10T23:34:41.742Z,99782.00
2023-01-10T23:37:10.239Z,99784.97
2023-01-10T23:39:38.641Z,99787.09
2023-01-10T23:42:07.216Z,99777.47
2023-01-10T23:44:35.591Z,99773.28
2023-01-10T23:47:05.607Z,99773.81
2023-01-10T23:49:34.882Z,99781.44
2023-01-10T23:52:03.453Z,99771.81
2023-01-10T23:54:31.952Z,99770.41
2023-01-10T23:57:00.356Z,99781.03
2023-01-10T23:59:28.776Z,99777.16
